Richland, Montana
Current Conditions -  °F | °C
As of 7:53 AM on Sunday 23 Nov 2014 (Local Time) from KGGW Reporting Station
Overcast Overcast  
Wind Chill:   Ceiling: 2400
Heat Index: 24°   Visibility: 10mi
Dew Point: 17°   Wind: 24mph
Humidity: 75%   Direction: 310°NW
Pressure: 29.74"   Gusts: 33mph
Location:  48.82°N, 106.06°W
Report Text: KGGW 231453Z AUTO 31021G29KT 10SM OVC024 M04/M08 A2974 RMK AO2 PK WND 31032/1430 UPB00E26SNE00B06E20 SLP098 P0000 60001 T10441083 53022
Loading
Personal Weather Stations






























Interactive Weather Map New forecast layout! Learn more

10-Day Weather Forecast

Advertisements
Track Severe Weather on mobile